sensor_id;sensor_type;location;lat;lon;timestamp;pressure;altitude;pressure_sealevel;temperature;humidity
6038;BME280;3047;42.600;23.470;2023-07-20T00:00:55;92848.41;;;23.36;67.51
6038;BME280;3047;42.600;23.470;2023-07-20T00:03:22;92848.53;;;23.35;67.74
6038;BME280;3047;42.600;23.470;2023-07-20T00:05:50;92850.03;;;23.37;67.29
6038;BME280;3047;42.600;23.470;2023-07-20T00:08:18;92856.66;;;23.30;67.30
6038;BME280;3047;42.600;23.470;2023-07-20T00:10:45;92854.81;;;23.21;67.80
6038;BME280;3047;42.600;23.470;2023-07-20T00:13:12;92849.34;;;23.14;67.39
6038;BME280;3047;42.600;23.470;2023-07-20T00:15:39;92834.63;;;23.05;67.02
6038;BME280;3047;42.600;23.470;2023-07-20T00:18:06;92864.25;;;23.32;65.39
6038;BME280;3047;42.600;23.470;2023-07-20T00:20:33;92858.78;;;23.46;65.66
6038;BME280;3047;42.600;23.470;2023-07-20T00:22:59;92851.31;;;23.43;65.41
6038;BME280;3047;42.600;23.470;2023-07-20T00:25:28;92845.59;;;23.39;65.00
6038;BME280;3047;42.600;23.470;2023-07-20T00:27:54;92844.38;;;23.23;66.11
6038;BME280;3047;42.600;23.470;2023-07-20T00:30:21;92835.75;;;23.33;65.07
6038;BME280;3047;42.600;23.470;2023-07-20T00:32:48;92780.16;;;23.10;64.70
6038;BME280;3047;42.600;23.470;2023-07-20T00:35:14;92822.81;;;23.24;65.51
6038;BME280;3047;42.600;23.470;2023-07-20T00:37:41;92824.34;;;23.26;66.45
6038;BME280;3047;42.600;23.470;2023-07-20T00:40:08;92817.22;;;23.18;65.82
6038;BME280;3047;42.600;23.470;2023-07-20T00:42:36;92813.69;;;23.19;65.62
6038;BME280;3047;42.600;23.470;2023-07-20T00:45:04;92659.81;;;22.38;65.82
6038;BME280;3047;42.600;23.470;2023-07-20T00:47:31;92803.09;;;23.34;65.25
6038;BME280;3047;42.600;23.470;2023-07-20T00:49:58;92816.59;;;23.26;65.96
6038;BME280;3047;42.600;23.470;2023-07-20T00:52:25;92811.94;;;23.20;66.80
6038;BME280;3047;42.600;23.470;2023-07-20T00:54:54;92830.59;;;23.33;69.76
6038;BME280;3047;42.600;23.470;2023-07-20T00:57:22;92834.19;;;23.21;73.00
6038;BME280;3047;42.600;23.470;2023-07-20T00:59:52;92838.28;;;23.24;74.50
6038;BME280;3047;42.600;23.470;2023-07-20T01:02:19;92839.47;;;23.19;74.85
6038;BME280;3047;42.600;23.470;2023-07-20T01:04:45;92809.34;;;22.99;76.41
6038;BME280;3047;42.600;23.470;2023-07-20T01:07:17;92828.03;;;23.12;76.53
6038;BME280;3047;42.600;23.470;2023-07-20T01:09:55;92810.31;;;22.98;76.80
6038;BME280;3047;42.600;23.470;2023-07-20T01:12:29;92810.59;;;23.05;77.48
6038;BME280;3047;42.600;23.470;2023-07-20T01:14:59;92797.63;;;23.06;77.69
6038;BME280;3047;42.600;23.470;2023-07-20T01:17:26;92780.34;;;22.86;77.11
6038;BME280;3047;42.600;23.470;2023-07-20T01:19:52;92779.06;;;22.80;78.28
6038;BME280;3047;42.600;23.470;2023-07-20T01:22:30;92815.22;;;22.90;78.66
6038;BME280;3047;42.600;23.470;2023-07-20T01:25:18;92817.88;;;22.67;79.15
6038;BME280;3047;42.600;23.470;2023-07-20T01:30:56;92824.56;;;22.59;79.71
6038;BME280;3047;42.600;23.470;2023-07-20T01:33:28;92816.78;;;22.49;79.83
6038;BME280;3047;42.600;23.470;2023-07-20T01:35:58;92826.25;;;22.49;80.60
6038;BME280;3047;42.600;23.470;2023-07-20T01:38:26;92820.03;;;22.40;80.56
6038;BME280;3047;42.600;23.470;2023-07-20T01:40:53;92819.59;;;22.24;81.10
6038;BME280;3047;42.600;23.470;2023-07-20T01:43:20;92791.69;;;21.85;81.57
6038;BME280;3047;42.600;23.470;2023-07-20T01:45:46;92774.03;;;21.69;81.93
6038;BME280;3047;42.600;23.470;2023-07-20T01:48:13;92809.44;;;21.88;83.11
6038;BME280;3047;42.600;23.470;2023-07-20T01:50:41;92810.25;;;21.89;83.05
6038;BME280;3047;42.600;23.470;2023-07-20T01:53:08;92809.22;;;21.80;81.95
6038;BME280;3047;42.600;23.470;2023-07-20T01:55:35;92814.81;;;21.74;83.39
6038;BME280;3047;42.600;23.470;2023-07-20T01:58:01;92805.13;;;21.78;83.52
6038;BME280;3047;42.600;23.470;2023-07-20T02:00:29;92809.56;;;21.76;82.60
6038;BME280;3047;42.600;23.470;2023-07-20T02:02:55;92807.91;;;21.75;81.99
6038;BME280;3047;42.600;23.470;2023-07-20T02:05:22;92797.53;;;21.65;81.48
6038;BME280;3047;42.600;23.470;2023-07-20T02:07:50;92803.25;;;21.68;82.18
6038;BME280;3047;42.600;23.470;2023-07-20T02:10:17;92801.13;;;21.40;82.51
6038;BME280;3047;42.600;23.470;2023-07-20T02:12:43;92797.13;;;21.47;82.62
6038;BME280;3047;42.600;23.470;2023-07-20T02:15:10;92793.59;;;21.26;83.06
6038;BME280;3047;42.600;23.470;2023-07-20T02:17:38;92803.34;;;21.09;83.93
6038;BME280;3047;42.600;23.470;2023-07-20T02:20:07;92800.53;;;21.01;84.34
6038;BME280;3047;42.600;23.470;2023-07-20T02:22:35;92804.50;;;21.05;85.86
6038;BME280;3047;42.600;23.470;2023-07-20T02:25:04;92769.94;;;20.98;84.20
6038;BME280;3047;42.600;23.470;2023-07-20T02:27:31;92795.78;;;21.08;84.30
6038;BME280;3047;42.600;23.470;2023-07-20T02:29:57;92797.78;;;21.15;84.41
6038;BME280;3047;42.600;23.470;2023-07-20T02:32:24;92796.75;;;21.29;85.94
6038;BME280;3047;42.600;23.470;2023-07-20T02:34:51;92803.16;;;21.23;84.80
6038;BME280;3047;42.600;23.470;2023-07-20T02:37:18;92806.72;;;20.98;85.48
6038;BME280;3047;42.600;23.470;2023-07-20T02:39:44;92776.53;;;20.78;86.25
6038;BME280;3047;42.600;23.470;2023-07-20T02:42:12;92804.50;;;21.05;86.39
6038;BME280;3047;42.600;23.470;2023-07-20T02:44:39;92801.00;;;21.06;85.81
6038;BME280;3047;42.600;23.470;2023-07-20T02:47:06;92799.34;;;20.94;86.32
6038;BME280;3047;42.600;23.470;2023-07-20T02:49:33;92792.91;;;20.88;87.64
6038;BME280;3047;42.600;23.470;2023-07-20T02:51:59;92772.06;;;20.69;88.20
6038;BME280;3047;42.600;23.470;2023-07-20T02:54:26;92782.50;;;20.79;88.78
6038;BME280;3047;42.600;23.470;2023-07-20T02:56:53;92761.72;;;20.70;89.06
6038;BME280;3047;42.600;23.470;2023-07-20T02:59:21;92765.00;;;20.84;87.58
6038;BME280;3047;42.600;23.470;2023-07-20T03:01:48;92767.84;;;20.92;87.57
6038;BME280;3047;42.600;23.470;2023-07-20T03:04:15;92761.53;;;20.96;88.88
6038;BME280;3047;42.600;23.470;2023-07-20T03:06:41;92732.31;;;20.74;88.03
6038;BME280;3047;42.600;23.470;2023-07-20T03:09:08;92767.84;;;20.92;88.13
6038;BME280;3047;42.600;23.470;2023-07-20T03:11:35;92767.38;;;20.98;86.62
6038;BME280;3047;42.600;23.470;2023-07-20T03:14:01;92695.72;;;20.48;86.99
6038;BME280;3047;42.600;23.470;2023-07-20T03:16:29;92768.88;;;20.89;87.92
6038;BME280;3047;42.600;23.470;2023-07-20T03:18:58;92781.81;;;20.88;88.51
6038;BME280;3047;42.600;23.470;2023-07-20T03:21:25;92762.63;;;20.69;86.50
6038;BME280;3047;42.600;23.470;2023-07-20T03:23:52;92791.94;;;20.78;87.04
6038;BME280;3047;42.600;23.470;2023-07-20T03:26:19;92794.28;;;20.81;87.82
6038;BME280;3047;42.600;23.470;2023-07-20T03:28:46;92801.50;;;20.76;87.36
6038;BME280;3047;42.600;23.470;2023-07-20T03:31:13;92780.09;;;20.64;87.83
6038;BME280;3047;42.600;23.470;2023-07-20T03:33:42;92809.63;;;20.70;87.88
6038;BME280;3047;42.600;23.470;2023-07-20T03:36:09;92803.41;;;20.61;88.56
6038;BME280;3047;42.600;23.470;2023-07-20T03:38:36;92804.75;;;20.78;88.73
6038;BME280;3047;42.600;23.470;2023-07-20T03:41:03;92795.09;;;20.82;88.58
6038;BME280;3047;42.600;23.470;2023-07-20T03:43:29;92800.81;;;20.85;88.27
6038;BME280;3047;42.600;23.470;2023-07-20T03:45:55;92796.88;;;20.92;88.85
6038;BME280;3047;42.600;23.470;2023-07-20T03:48:23;92795.03;;;20.94;89.70
6038;BME280;3047;42.600;23.470;2023-07-20T03:50:54;92778.53;;;20.74;90.84
6038;BME280;3047;42.600;23.470;2023-07-20T03:53:21;92790.25;;;21.01;90.66
6038;BME280;3047;42.600;23.470;2023-07-20T03:55:49;92797.28;;;21.10;90.52
6038;BME280;3047;42.600;23.470;2023-07-20T03:58:16;92799.88;;;21.21;91.45
6038;BME280;3047;42.600;23.470;2023-07-20T04:00:45;92807.97;;;21.28;92.61
6038;BME280;3047;42.600;23.470;2023-07-20T04:03:12;92804.03;;;21.35;93.25
6038;BME280;3047;42.600;23.470;2023-07-20T04:05:38;92807.66;;;21.44;92.71
6038;BME280;3047;42.600;23.470;2023-07-20T04:08:06;92808.00;;;21.51;92.46
6038;BME280;3047;42.600;23.470;2023-07-20T04:10:33;92807.91;;;21.52;92.45
6038;BME280;3047;42.600;23.470;2023-07-20T04:13:00;92802.19;;;21.60;91.29
6038;BME280;3047;42.600;23.470;2023-07-20T04:15:27;92805.91;;;21.67;92.27
6038;BME280;3047;42.600;23.470;2023-07-20T04:17:53;92785.94;;;21.70;92.76
6038;BME280;3047;42.600;23.470;2023-07-20T04:20:21;92781.16;;;21.77;92.67
6038;BME280;3047;42.600;23.470;2023-07-20T04:22:48;92789.09;;;21.85;94.04
6038;BME280;3047;42.600;23.470;2023-07-20T04:25:17;92783.59;;;21.90;93.41
6038;BME280;3047;42.600;23.470;2023-07-20T04:27:44;92789.47;;;21.92;93.71
6038;BME280;3047;42.600;23.470;2023-07-20T04:30:11;92787.94;;;22.01;93.51
6038;BME280;3047;42.600;23.470;2023-07-20T04:32:38;92796.09;;;22.06;91.86
6038;BME280;3047;42.600;23.470;2023-07-20T04:35:09;92789.59;;;22.13;91.60
6038;BME280;3047;42.600;23.470;2023-07-20T04:37:36;92791.41;;;22.11;90.08
6038;BME280;3047;42.600;23.470;2023-07-20T04:40:03;92786.28;;;22.22;88.34
6038;BME280;3047;42.600;23.470;2023-07-20T04:42:31;92784.16;;;22.27;88.98
6038;BME280;3047;42.600;23.470;2023-07-20T04:44:58;92774.09;;;22.35;89.63
6038;BME280;3047;42.600;23.470;2023-07-20T04:47:25;92772.06;;;22.50;88.98
6038;BME280;3047;42.600;23.470;2023-07-20T04:49:51;92773.91;;;22.59;90.15
6038;BME280;3047;42.600;23.470;2023-07-20T04:52:18;92766.28;;;22.69;89.21
6038;BME280;3047;42.600;23.470;2023-07-20T04:54:45;92766.91;;;22.82;86.66
6038;BME280;3047;42.600;23.470;2023-07-20T04:57:12;92761.97;;;22.90;87.01
6038;BME280;3047;42.600;23.470;2023-07-20T04:59:40;92765.19;;;23.04;88.78
6038;BME280;3047;42.600;23.470;2023-07-20T05:02:06;92765.56;;;22.99;88.30
6038;BME280;3047;42.600;23.470;2023-07-20T05:04:33;92782.28;;;23.05;88.48
6038;BME280;3047;42.600;23.470;2023-07-20T05:07:00;92770.84;;;23.18;87.43
6038;BME280;3047;42.600;23.470;2023-07-20T05:09:27;92769.44;;;23.35;86.76
6038;BME280;3047;42.600;23.470;2023-07-20T05:11:53;92766.53;;;23.50;86.29
6038;BME280;3047;42.600;23.470;2023-07-20T05:14:20;92770.78;;;23.60;85.45
6038;BME280;3047;42.600;23.470;2023-07-20T05:16:48;92770.59;;;23.73;86.39
6038;BME280;3047;42.600;23.470;2023-07-20T05:19:15;92776.63;;;23.83;86.07
6038;BME280;3047;42.600;23.470;2023-07-20T05:21:41;92774.63;;;23.87;85.46
6038;BME280;3047;42.600;23.470;2023-07-20T05:24:08;92780.09;;;24.03;83.44
6038;BME280;3047;42.600;23.470;2023-07-20T05:26:35;92775.34;;;24.08;84.23
6038;BME280;3047;42.600;23.470;2023-07-20T05:29:03;92749.94;;;24.04;82.87
6038;BME280;3047;42.600;23.470;2023-07-20T05:31:30;92768.47;;;24.28;82.11
6038;BME280;3047;42.600;23.470;2023-07-20T05:33:58;92764.28;;;24.27;82.42
6038;BME280;3047;42.600;23.470;2023-07-20T05:36:28;92777.59;;;24.32;82.22
6038;BME280;3047;42.600;23.470;2023-07-20T05:38:56;92777.38;;;24.45;84.06
6038;BME280;3047;42.600;23.470;2023-07-20T05:41:23;92774.94;;;24.53;82.58
6038;BME280;3047;42.600;23.470;2023-07-20T05:43:49;92791.25;;;24.54;81.95
6038;BME280;3047;42.600;23.470;2023-07-20T05:46:16;92788.91;;;24.51;82.33
6038;BME280;3047;42.600;23.470;2023-07-20T05:48:43;92792.59;;;24.58;83.32
6038;BME280;3047;42.600;23.470;2023-07-20T05:51:11;92792.88;;;24.64;80.69
6038;BME280;3047;42.600;23.470;2023-07-20T05:53:38;92789.22;;;24.67;80.47
6038;BME280;3047;42.600;23.470;2023-07-20T05:56:05;92799.16;;;24.72;81.87
6038;BME280;3047;42.600;23.470;2023-07-20T05:58:35;92798.47;;;24.70;81.66
6038;BME280;3047;42.600;23.470;2023-07-20T06:01:03;92798.59;;;24.68;80.57
6038;BME280;3047;42.600;23.470;2023-07-20T06:03:31;92807.97;;;24.69;81.87
6038;BME280;3047;42.600;23.470;2023-07-20T06:05:59;92799.53;;;24.67;80.66
6038;BME280;3047;42.600;23.470;2023-07-20T06:08:27;92810.16;;;24.74;79.74
6038;BME280;3047;42.600;23.470;2023-07-20T06:10:54;92790.31;;;24.74;80.01
6038;BME280;3047;42.600;23.470;2023-07-20T06:13:21;92788.13;;;24.79;80.32
6038;BME280;3047;42.600;23.470;2023-07-20T06:15:48;92781.47;;;24.77;80.68
6038;BME280;3047;42.600;23.470;2023-07-20T06:18:14;92773.84;;;24.75;80.10
6038;BME280;3047;42.600;23.470;2023-07-20T06:20:41;92792.22;;;24.91;78.68
6038;BME280;3047;42.600;23.470;2023-07-20T06:23:08;92795.22;;;24.97;77.44
6038;BME280;3047;42.600;23.470;2023-07-20T06:25:36;92784.88;;;24.97;77.30
6038;BME280;3047;42.600;23.470;2023-07-20T06:28:03;92771.84;;;24.88;78.13
6038;BME280;3047;42.600;23.470;2023-07-20T06:30:30;92782.03;;;25.00;76.91
6038;BME280;3047;42.600;23.470;2023-07-20T06:32:57;92784.63;;;25.00;76.73
6038;BME280;3047;42.600;23.470;2023-07-20T06:35:23;92728.88;;;24.68;78.75
6038;BME280;3047;42.600;23.470;2023-07-20T06:37:50;92775.34;;;24.97;78.61
6038;BME280;3047;42.600;23.470;2023-07-20T06:40:17;92758.22;;;24.96;76.74
6038;BME280;3047;42.600;23.470;2023-07-20T06:42:45;92779.31;;;25.11;75.92
6038;BME280;3047;42.600;23.470;2023-07-20T06:45:12;92776.59;;;25.12;77.17
6038;BME280;3047;42.600;23.470;2023-07-20T06:47:39;92780.25;;;25.20;78.89
6038;BME280;3047;42.600;23.470;2023-07-20T06:50:06;92777.66;;;25.29;77.47
6038;BME280;3047;42.600;23.470;2023-07-20T06:52:33;92778.34;;;25.22;76.48
6038;BME280;3047;42.600;23.470;2023-07-20T06:55:00;92781.72;;;25.32;77.13
6038;BME280;3047;42.600;23.470;2023-07-20T06:57:26;92783.63;;;25.39;77.44
6038;BME280;3047;42.600;23.470;2023-07-20T06:59:54;92789.06;;;25.46;76.35
6038;BME280;3047;42.600;23.470;2023-07-20T07:02:21;92790.13;;;25.53;77.52
6038;BME280;3047;42.600;23.470;2023-07-20T07:04:48;92792.56;;;25.55;80.06
6038;BME280;3047;42.600;23.470;2023-07-20T07:07:14;92786.28;;;25.67;78.54
6038;BME280;3047;42.600;23.470;2023-07-20T07:09:42;92751.63;;;25.50;78.68
6038;BME280;3047;42.600;23.470;2023-07-20T07:12:09;92801.25;;;25.83;75.29
6038;BME280;3047;42.600;23.470;2023-07-20T07:14:35;92814.28;;;25.91;74.59
6038;BME280;3047;42.600;23.470;2023-07-20T07:17:04;92789.38;;;25.90;73.58
6038;BME280;3047;42.600;23.470;2023-07-20T07:19:31;92817.56;;;26.21;74.68
6038;BME280;3047;42.600;23.470;2023-07-20T07:21:58;92820.31;;;26.19;71.14
6038;BME280;3047;42.600;23.470;2023-07-20T07:24:24;92824.53;;;26.20;70.69
6038;BME280;3047;42.600;23.470;2023-07-20T07:26:51;92832.06;;;26.13;69.59
6038;BME280;3047;42.600;23.470;2023-07-20T07:29:18;92848.97;;;26.08;73.23
6038;BME280;3047;42.600;23.470;2023-07-20T07:31:44;92860.44;;;26.05;74.03
6038;BME280;3047;42.600;23.470;2023-07-20T07:34:12;92863.84;;;26.06;74.69
6038;BME280;3047;42.600;23.470;2023-07-20T07:36:39;92856.56;;;26.19;73.46
6038;BME280;3047;42.600;23.470;2023-07-20T07:39:05;92861.41;;;26.32;70.75
6038;BME280;3047;42.600;23.470;2023-07-20T07:41:32;92853.31;;;26.45;71.76
6038;BME280;3047;42.600;23.470;2023-07-20T07:43:59;92831.88;;;26.52;72.48
6038;BME280;3047;42.600;23.470;2023-07-20T07:46:25;92848.19;;;26.90;68.53
6038;BME280;3047;42.600;23.470;2023-07-20T07:48:52;92845.88;;;27.05;70.12
6038;BME280;3047;42.600;23.470;2023-07-20T07:51:21;92842.81;;;27.19;66.75
6038;BME280;3047;42.600;23.470;2023-07-20T07:53:47;92845.06;;;27.40;66.66
6038;BME280;3047;42.600;23.470;2023-07-20T07:56:14;92797.66;;;27.30;65.00
6038;BME280;3047;42.600;23.470;2023-07-20T07:58:42;92841.47;;;27.77;60.96
6038;BME280;3047;42.600;23.470;2023-07-20T08:01:08;92814.66;;;27.94;62.22
6038;BME280;3047;42.600;23.470;2023-07-20T08:03:35;92802.25;;;28.14;60.70
6038;BME280;3047;42.600;23.470;2023-07-20T08:06:02;92797.47;;;28.35;59.88
6038;BME280;3047;42.600;23.470;2023-07-20T08:08:31;92792.69;;;28.49;58.46
6038;BME280;3047;42.600;23.470;2023-07-20T08:10:58;92808.31;;;28.65;55.06
6038;BME280;3047;42.600;23.470;2023-07-20T08:13:25;92795.66;;;28.78;56.65
6038;BME280;3047;42.600;23.470;2023-07-20T08:15:52;92805.91;;;28.96;55.91
6038;BME280;3047;42.600;23.470;2023-07-20T08:18:19;92817.03;;;29.06;55.86
6038;BME280;3047;42.600;23.470;2023-07-20T08:20:46;92832.66;;;29.23;56.79
6038;BME280;3047;42.600;23.470;2023-07-20T08:23:14;92834.28;;;29.48;54.39
6038;BME280;3047;42.600;23.470;2023-07-20T08:25:42;92844.53;;;29.50;54.44
6038;BME280;3047;42.600;23.470;2023-07-20T08:28:10;92845.53;;;29.65;56.45
6038;BME280;3047;42.600;23.470;2023-07-20T08:30:40;92850.06;;;29.96;54.96
6038;BME280;3047;42.600;23.470;2023-07-20T08:33:09;92858.00;;;30.11;55.08
6038;BME280;3047;42.600;23.470;2023-07-20T08:35:36;92846.41;;;30.29;54.30
6038;BME280;3047;42.600;23.470;2023-07-20T08:38:02;92693.75;;;29.48;51.93
6038;BME280;3047;42.600;23.470;2023-07-20T08:40:30;92839.13;;;30.64;52.41
6038;BME280;3047;42.600;23.470;2023-07-20T08:42:58;92842.81;;;30.78;52.36
6038;BME280;3047;42.600;23.470;2023-07-20T08:45:27;92843.91;;;30.92;52.78
6038;BME280;3047;42.600;23.470;2023-07-20T08:47:55;92835.16;;;31.08;55.25
6038;BME280;3047;42.600;23.470;2023-07-20T08:50:24;92811.44;;;31.17;51.71
6038;BME280;3047;42.600;23.470;2023-07-20T08:52:52;92839.44;;;31.23;52.49
6038;BME280;3047;42.600;23.470;2023-07-20T08:55:20;92835.94;;;31.39;52.07
6038;BME280;3047;42.600;23.470;2023-07-20T08:57:49;92841.03;;;31.56;52.66
6038;BME280;3047;42.600;23.470;2023-07-20T09:00:19;92850.09;;;31.45;53.44
6038;BME280;3047;42.600;23.470;2023-07-20T09:02:49;92849.63;;;31.41;53.21
6038;BME280;3047;42.600;23.470;2023-07-20T09:05:17;92846.22;;;31.41;53.02
6038;BME280;3047;42.600;23.470;2023-07-20T09:07:44;92844.59;;;31.40;49.97
6038;BME280;3047;42.600;23.470;2023-07-20T09:10:11;92826.84;;;31.35;49.05
6038;BME280;3047;42.600;23.470;2023-07-20T09:12:39;92840.47;;;31.45;48.42
6038;BME280;3047;42.600;23.470;2023-07-20T09:15:07;92803.56;;;31.25;48.80
6038;BME280;3047;42.600;23.470;2023-07-20T09:17:36;92824.03;;;31.60;46.70
6038;BME280;3047;42.600;23.470;2023-07-20T09:20:04;92836.31;;;31.74;45.93
6038;BME280;3047;42.600;23.470;2023-07-20T09:22:33;92842.16;;;31.76;45.08
6038;BME280;3047;42.600;23.470;2023-07-20T09:25:00;92840.06;;;31.71;44.40
6038;BME280;3047;42.600;23.470;2023-07-20T09:27:34;92835.50;;;31.73;44.08
6038;BME280;3047;42.600;23.470;2023-07-20T09:30:02;92812.59;;;31.61;44.68
6038;BME280;3047;42.600;23.470;2023-07-20T09:32:29;92838.16;;;31.88;41.68
6038;BME280;3047;42.600;23.470;2023-07-20T09:34:58;92833.31;;;32.00;42.32
6038;BME280;3047;42.600;23.470;2023-07-20T09:37:25;92840.19;;;32.16;42.62
6038;BME280;3047;42.600;23.470;2023-07-20T09:39:52;92823.41;;;32.10;41.40
6038;BME280;3047;42.600;23.470;2023-07-20T09:42:21;92836.03;;;32.36;41.80
6038;BME280;3047;42.600;23.470;2023-07-20T09:44:50;92836.97;;;32.43;39.81
6038;BME280;3047;42.600;23.470;2023-07-20T09:47:21;92837.16;;;32.42;41.28
6038;BME280;3047;42.600;23.470;2023-07-20T09:49:48;92824.34;;;32.47;40.56
6038;BME280;3047;42.600;23.470;2023-07-20T09:52:16;92830.84;;;32.51;41.93
6038;BME280;3047;42.600;23.470;2023-07-20T09:54:44;92818.56;;;32.66;41.85
6038;BME280;3047;42.600;23.470;2023-07-20T09:57:12;92810.34;;;32.69;41.98
6038;BME280;3047;42.600;23.470;2023-07-20T09:59:40;92817.00;;;32.72;39.79
6038;BME280;3047;42.600;23.470;2023-07-20T10:02:15;92811.97;;;32.70;41.19
6038;BME280;3047;42.600;23.470;2023-07-20T10:04:47;92805.41;;;32.81;40.69
6038;BME280;3047;42.600;23.470;2023-07-20T10:07:16;92801.03;;;32.82;40.30
6038;BME280;3047;42.600;23.470;2023-07-20T10:09:47;92789.94;;;32.80;40.25
6038;BME280;3047;42.600;23.470;2023-07-20T10:12:15;92787.34;;;32.65;39.96
6038;BME280;3047;42.600;23.470;2023-07-20T10:14:47;92781.75;;;32.53;40.73
6038;BME280;3047;42.600;23.470;2023-07-20T10:17:18;92792.78;;;32.34;40.57
6038;BME280;3047;42.600;23.470;2023-07-20T10:19:47;92784.78;;;32.06;39.99
6038;BME280;3047;42.600;23.470;2023-07-20T10:22:19;92794.50;;;31.97;41.20
6038;BME280;3047;42.600;23.470;2023-07-20T10:24:51;92795.66;;;31.57;41.50
6038;BME280;3047;42.600;23.470;2023-07-20T10:27:19;92796.78;;;31.39;43.42
6038;BME280;3047;42.600;23.470;2023-07-20T10:29:47;92803.44;;;31.19;42.17
6038;BME280;3047;42.600;23.470;2023-07-20T10:32:14;92802.09;;;31.23;43.95
6038;BME280;3047;42.600;23.470;2023-07-20T10:34:41;92811.81;;;31.37;42.77
6038;BME280;3047;42.600;23.470;2023-07-20T10:37:08;92806.81;;;31.50;43.74
6038;BME280;3047;42.600;23.470;2023-07-20T10:39:36;92817.09;;;31.52;40.63
6038;BME280;3047;42.600;23.470;2023-07-20T10:42:06;92782.94;;;31.16;39.28
6038;BME280;3047;42.600;23.470;2023-07-20T10:44:34;92784.63;;;31.23;40.01
6038;BME280;3047;42.600;23.470;2023-07-20T10:47:08;92791.38;;;31.18;40.98
6038;BME280;3047;42.600;23.470;2023-07-20T10:52:21;92798.66;;;31.68;37.96
6038;BME280;3047;42.600;23.470;2023-07-20T10:54:49;92783.25;;;31.59;37.60
6038;BME280;3047;42.600;23.470;2023-07-20T10:57:28;92787.13;;;31.63;39.61
6038;BME280;3047;42.600;23.470;2023-07-20T11:00:08;92751.53;;;31.47;40.36
6038;BME280;3047;42.600;23.470;2023-07-20T11:02:42;92721.88;;;31.02;40.13
6038;BME280;3047;42.600;23.470;2023-07-20T11:05:32;92749.63;;;30.95;40.72
6038;BME280;3047;42.600;23.470;2023-07-20T11:07:58;92738.38;;;30.94;41.55
6038;BME280;3047;42.600;23.470;2023-07-20T11:10:27;92759.22;;;30.80;42.38
6038;BME280;3047;42.600;23.470;2023-07-20T11:13:17;92751.06;;;30.74;42.04
6038;BME280;3047;42.600;23.470;2023-07-20T11:15:45;92652.50;;;30.24;42.13
6038;BME280;3047;42.600;23.470;2023-07-20T11:18:13;92717.91;;;30.60;43.69
6038;BME280;3047;42.600;23.470;2023-07-20T11:20:40;92730.25;;;30.66;40.57
6038;BME280;3047;42.600;23.470;2023-07-20T11:23:07;92668.25;;;30.53;39.38
6038;BME280;3047;42.600;23.470;2023-07-20T11:25:40;92725.94;;;31.05;39.98
6038;BME280;3047;42.600;23.470;2023-07-20T11:28:07;92729.16;;;31.07;39.24
6038;BME280;3047;42.600;23.470;2023-07-20T11:30:36;92733.03;;;31.11;39.29
6038;BME280;3047;42.600;23.470;2023-07-20T11:33:03;92736.47;;;31.11;39.43
6038;BME280;3047;42.600;23.470;2023-07-20T11:35:30;92704.72;;;31.08;40.87
6038;BME280;3047;42.600;23.470;2023-07-20T11:37:57;92719.00;;;31.35;39.86
6038;BME280;3047;42.600;23.470;2023-07-20T11:40:23;92717.50;;;31.40;39.36
6038;BME280;3047;42.600;23.470;2023-07-20T11:42:53;92705.25;;;31.41;39.34
6038;BME280;3047;42.600;23.470;2023-07-20T11:45:19;92707.34;;;31.45;40.34
6038;BME280;3047;42.600;23.470;2023-07-20T11:47:46;92706.53;;;31.60;41.42
6038;BME280;3047;42.600;23.470;2023-07-20T11:50:13;92701.84;;;31.70;40.00
6038;BME280;3047;42.600;23.470;2023-07-20T11:52:41;92696.81;;;31.83;40.32
6038;BME280;3047;42.600;23.470;2023-07-20T11:55:08;92696.38;;;31.94;40.80
6038;BME280;3047;42.600;23.470;2023-07-20T11:57:35;92690.81;;;31.97;39.40
6038;BME280;3047;42.600;23.470;2023-07-20T12:00:06;92693.03;;;32.00;39.46
6038;BME280;3047;42.600;23.470;2023-07-20T12:02:37;92687.91;;;32.07;39.89
6038;BME280;3047;42.600;23.470;2023-07-20T12:05:06;92669.34;;;32.02;40.20
6038;BME280;3047;42.600;23.470;2023-07-20T12:07:36;92683.19;;;32.17;40.12
6038;BME280;3047;42.600;23.470;2023-07-20T12:10:06;92678.16;;;32.16;41.30
6038;BME280;3047;42.600;23.470;2023-07-20T12:12:33;92684.25;;;32.23;41.98
6038;BME280;3047;42.600;23.470;2023-07-20T12:15:15;92671.84;;;32.25;39.24
6038;BME280;3047;42.600;23.470;2023-07-20T12:17:43;92647.91;;;32.07;40.56
6038;BME280;3047;42.600;23.470;2023-07-20T12:20:10;92674.81;;;32.22;40.97
6038;BME280;3047;42.600;23.470;2023-07-20T12:22:40;92651.16;;;32.09;42.72
6038;BME280;3047;42.600;23.470;2023-07-20T12:25:07;92672.09;;;32.15;42.48
6038;BME280;3047;42.600;23.470;2023-07-20T12:27:36;92665.59;;;32.26;42.30
6038;BME280;3047;42.600;23.470;2023-07-20T12:30:04;92606.13;;;31.92;41.70
6038;BME280;3047;42.600;23.470;2023-07-20T12:32:33;92653.47;;;32.18;42.70
6038;BME280;3047;42.600;23.470;2023-07-20T12:34:59;92654.50;;;32.24;41.58
6038;BME280;3047;42.600;23.470;2023-07-20T12:37:26;92647.06;;;32.21;40.91
6038;BME280;3047;42.600;23.470;2023-07-20T12:39:53;92645.88;;;32.23;42.03
6038;BME280;3047;42.600;23.470;2023-07-20T12:42:20;92643.63;;;32.20;41.45
6038;BME280;3047;42.600;23.470;2023-07-20T12:44:48;92644.97;;;32.16;39.77
6038;BME280;3047;42.600;23.470;2023-07-20T12:47:15;92648.44;;;32.17;38.18
6038;BME280;3047;42.600;23.470;2023-07-20T12:49:44;92643.13;;;32.10;37.85
6038;BME280;3047;42.600;23.470;2023-07-20T12:52:12;92647.53;;;32.10;38.62
6038;BME280;3047;42.600;23.470;2023-07-20T12:54:38;92645.09;;;32.08;40.22
6038;BME280;3047;42.600;23.470;2023-07-20T12:57:06;92633.56;;;32.03;39.29
6038;BME280;3047;42.600;23.470;2023-07-20T12:59:33;92634.28;;;31.96;39.24
6038;BME280;3047;42.600;23.470;2023-07-20T13:02:00;92642.97;;;31.97;39.49
6038;BME280;3047;42.600;23.470;2023-07-20T13:04:27;92642.06;;;31.90;38.57
6038;BME280;3047;42.600;23.470;2023-07-20T13:06:55;92640.06;;;31.92;39.48
6038;BME280;3047;42.600;23.470;2023-07-20T13:09:24;92640.25;;;31.90;38.48
6038;BME280;3047;42.600;23.470;2023-07-20T13:11:50;92638.72;;;31.81;39.97
6038;BME280;3047;42.600;23.470;2023-07-20T13:14:17;92638.38;;;31.84;40.55
6038;BME280;3047;42.600;23.470;2023-07-20T13:16:44;92641.25;;;31.89;36.44
6038;BME280;3047;42.600;23.470;2023-07-20T13:19:11;92642.16;;;31.82;36.30